Time;durP1;ratioP1;P1;durP2;ratioP2;P2;SDS_P1;SDS_P2;PMS_P1;PMS_P2;Temp;Humidity;BMP_temperature;BMP_pressure;BME280_temperature;BME280_humidity;BME280_pressure;Samples;Min_cycle;Max_cycle;Signal;HPM_P1;HPM_P2
2023/10/21 00:01:55;;;;;;;24.88;9.35;;;;;;;-146.27;91.63;82705.59;5030350;28;21399;-75
2023/10/21 00:04:21;;;;;;;20.20;9.40;;;;;;;-146.27;91.36;82707.63;5020805;28;20112;-74
2023/10/21 00:06:47;;;;;;;19.33;8.38;;;;;;;-146.27;91.26;82713.66;5025842;28;20080;-74
2023/10/21 00:09:13;;;;;;;24.83;9.02;;;;;;;-146.27;91.20;82685.50;5023034;28;20064;-76
2023/10/21 00:11:38;;;;;;;26.95;9.85;;;;;;;-146.27;91.21;82729.72;5015783;28;20033;-75
2023/10/21 00:14:04;;;;;;;22.98;8.75;;;;;;;-146.27;91.39;82693.56;5029879;28;20052;-75
2023/10/21 00:16:29;;;;;;;14.98;7.85;;;;;;;-146.27;91.18;82699.59;5029913;28;20084;-75
2023/10/21 00:18:54;;;;;;;23.15;8.73;;;;;;;-146.27;91.16;82749.81;5028461;28;20021;-74
2023/10/21 00:21:20;;;;;;;21.38;9.00;;;;;;;-146.27;91.04;82701.59;5023729;28;20041;-74
2023/10/21 00:23:45;;;;;;;23.92;9.38;;;;;;;-146.27;91.05;82735.75;5033079;28;20028;-74
2023/10/21 00:26:10;;;;;;;23.63;9.23;;;;;;;-146.27;91.17;82725.69;5020942;28;20031;-75
2023/10/21 00:28:36;;;;;;;26.13;9.55;;;;;;;-146.27;91.27;82649.34;5027696;28;20594;-74
2023/10/21 00:31:03;;;;;;;23.90;9.30;;;;;;;-146.27;91.18;82713.66;5014085;28;20521;-74
2023/10/21 00:33:28;;;;;;;20.80;9.57;;;;;;;-146.27;91.38;82767.88;5014011;28;20033;-73
2023/10/21 00:35:54;;;;;;;29.80;9.80;;;;;;;-146.27;91.27;82731.72;5027623;28;20112;-74
2023/10/21 00:38:19;;;;;;;20.88;9.18;;;;;;;-146.27;91.22;82735.75;5027606;28;20587;-73
2023/10/21 00:40:55;;;;;;;24.25;8.93;;;;;;;-146.27;91.04;82749.81;5023665;28;20025;-74
2023/10/21 00:43:32;;;;;;;21.35;8.85;;;;;;;-146.27;91.22;82749.81;5028389;28;20026;-74
2023/10/21 00:45:58;;;;;;;24.70;8.23;;;;;;;-146.27;91.29;82725.69;5025322;28;20111;-74
2023/10/21 00:48:24;;;;;;;19.83;8.68;;;;;;;-146.27;91.37;82733.72;5024098;28;20034;-73
2023/10/21 00:50:50;;;;;;;22.13;9.30;;;;;;;-146.27;91.24;82713.66;5019329;28;20036;-75
2023/10/21 00:53:16;;;;;;;21.85;9.35;;;;;;;-146.27;91.40;82729.72;5026437;28;20032;-75
2023/10/21 00:55:41;;;;;;;25.33;9.25;;;;;;;-146.27;91.36;82697.56;5023351;28;20392;-75
2023/10/21 00:58:07;;;;;;;20.67;8.35;;;;;;;-146.27;91.50;82709.63;5015919;28;20100;-75
2023/10/21 01:00:32;;;;;;;16.83;8.57;;;;;;;-146.27;91.36;82697.56;5015910;28;20069;-74
2023/10/21 01:02:57;;;;;;;25.73;8.35;;;;;;;-146.27;91.18;82707.63;5016795;28;20048;-75
2023/10/21 01:05:23;;;;;;;20.58;8.63;;;;;;;-146.27;91.35;82673.47;5014705;28;20064;-75
2023/10/21 01:07:48;;;;;;;17.75;7.63;;;;;;;-146.27;91.28;82693.56;5021018;28;20033;-75
2023/10/21 01:10:13;;;;;;;18.85;8.60;;;;;;;-146.27;91.21;82717.66;5012585;28;20038;-75
2023/10/21 01:12:39;;;;;;;21.50;8.82;;;;;;;-146.27;91.31;82725.69;5017486;28;20034;-74
2023/10/21 01:15:05;;;;;;;20.55;8.18;;;;;;;-146.27;91.29;82701.59;5017889;28;20026;-75
2023/10/21 01:17:31;;;;;;;25.08;7.90;;;;;;;-146.27;91.23;82713.66;5026415;28;20472;-74
2023/10/21 01:19:59;;;;;;;19.08;8.52;;;;;;;-146.27;91.21;82723.69;5026182;28;20029;-75
2023/10/21 01:22:25;;;;;;;20.80;7.93;;;;;;;-146.27;91.31;82721.69;5013923;28;20043;-75
2023/10/21 01:24:50;;;;;;;22.77;7.93;;;;;;;-146.27;91.55;82749.81;5013320;28;20490;-75
2023/10/21 01:27:16;;;;;;;24.02;9.77;;;;;;;-146.27;91.43;82727.72;5023250;28;20530;-74
2023/10/21 01:29:41;;;;;;;20.05;8.57;;;;;;;-146.27;91.24;82717.66;5018315;28;20022;-71
2023/10/21 01:32:07;;;;;;;17.35;7.53;;;;;;;-146.27;91.41;82715.66;5028457;28;20033;-71
2023/10/21 01:34:32;;;;;;;21.92;8.38;;;;;;;-146.27;91.61;82709.63;5016310;28;20065;-71
2023/10/21 01:36:59;;;;;;;19.65;8.73;;;;;;;-146.27;91.49;82739.75;5025021;28;20036;-71
2023/10/21 01:39:24;;;;;;;20.98;8.55;;;;;;;-146.27;91.47;82729.72;5014998;28;20033;-71
2023/10/21 01:41:50;;;;;;;26.17;8.52;;;;;;;-146.27;91.55;82733.72;5026065;28;20037;-71
2023/10/21 01:44:15;;;;;;;16.48;9.15;;;;;;;-146.27;91.61;82725.69;5017495;28;20060;-71
2023/10/21 01:46:40;;;;;;;18.52;8.88;;;;;;;-146.27;91.33;82723.69;5009116;28;20121;-72
2023/10/21 01:49:06;;;;;;;24.58;10.13;;;;;;;-146.27;91.22;82757.84;5013588;28;20056;-71
2023/10/21 01:51:31;;;;;;;24.67;9.80;;;;;;;-146.27;91.33;82707.63;5029322;28;20021;-72
2023/10/21 01:53:57;;;;;;;17.40;9.75;;;;;;;-146.27;91.42;82765.88;5022774;28;20029;-71
2023/10/21 01:56:22;;;;;;;23.45;10.02;;;;;;;-146.27;91.27;82761.84;5022410;28;20105;-71
2023/10/21 01:58:47;;;;;;;26.70;9.80;;;;;;;-146.27;91.25;82733.72;5025987;28;20436;-72
2023/10/21 02:01:13;;;;;;;23.58;9.65;;;;;;;-146.27;91.23;82733.72;5025961;28;20033;-71
2023/10/21 02:03:40;;;;;;;21.73;9.45;;;;;;;-146.27;91.11;82717.66;5028109;28;20057;-70
2023/10/21 02:06:06;;;;;;;19.60;9.88;;;;;;;-146.27;91.21;82709.63;5021688;28;20469;-72
2023/10/21 02:08:32;;;;;;;26.25;10.13;;;;;;;-146.27;91.09;82733.72;5018593;28;20444;-70
2023/10/21 02:10:57;;;;;;;27.15;9.55;;;;;;;-146.27;91.39;82765.88;5017557;28;20029;-71
2023/10/21 02:13:23;;;;;;;17.75;9.25;;;;;;;-146.27;91.21;82741.78;5015653;28;20472;-71
2023/10/21 02:15:50;;;;;;;25.77;10.57;;;;;;;-146.27;91.33;82761.84;5028965;28;20049;-70
2023/10/21 02:18:16;;;;;;;21.58;9.00;;;;;;;-146.27;91.55;82765.88;5027209;28;20416;-71
2023/10/21 02:20:41;;;;;;;23.55;10.25;;;;;;;-146.27;91.41;82735.75;5015616;28;20021;-70
2023/10/21 02:23:06;;;;;;;21.92;9.57;;;;;;;-146.27;91.57;82729.72;5024748;28;20079;-71
2023/10/21 02:25:32;;;;;;;27.40;10.02;;;;;;;-146.27;91.43;82689.53;5016885;28;20516;-71
2023/10/21 02:27:58;;;;;;;17.67;8.57;;;;;;;-146.27;91.47;82735.75;5024589;28;20029;-71
2023/10/21 02:30:23;;;;;;;16.92;8.75;;;;;;;-146.27;91.47;82733.72;5013809;28;20040;-71
2023/10/21 02:32:50;;;;;;;20.40;9.65;;;;;;;-146.27;91.52;82749.81;5014296;28;20025;-71
2023/10/21 02:35:15;;;;;;;25.27;9.90;;;;;;;-146.27;91.74;82759.84;5016013;28;20025;-71
2023/10/21 02:37:41;;;;;;;21.98;9.40;;;;;;;-146.27;91.81;82741.78;5021859;28;20028;-72
2023/10/21 02:40:07;;;;;;;20.85;9.88;;;;;;;-146.27;91.67;82725.69;5024830;28;20033;-70
2023/10/21 02:42:32;;;;;;;24.65;9.35;;;;;;;-146.27;91.85;82769.91;5015465;28;20651;-69
2023/10/21 02:44:59;;;;;;;23.17;9.27;;;;;;;-146.27;91.82;82755.84;5015096;28;20391;-72
2023/10/21 02:47:25;;;;;;;24.25;9.70;;;;;;;-146.27;91.66;82725.69;5023213;28;20021;-71
2023/10/21 02:49:50;;;;;;;23.67;9.30;;;;;;;-146.27;91.59;82745.78;5033747;28;20072;-71
2023/10/21 02:52:16;;;;;;;21.30;9.18;;;;;;;-146.27;91.62;82709.63;5013839;28;20029;-73
2023/10/21 02:54:41;;;;;;;32.13;9.70;;;;;;;-146.27;91.55;82737.75;5020546;28;20036;-71
2023/10/21 02:57:06;;;;;;;20.05;8.43;;;;;;;-146.27;91.57;82699.59;5027497;28;20025;-70
2023/10/21 02:59:33;;;;;;;25.13;9.20;;;;;;;-146.27;91.39;82713.66;5021868;28;20034;-71
2023/10/21 03:01:58;;;;;;;21.02;9.27;;;;;;;-146.27;91.29;82659.41;5023445;28;20466;-70
2023/10/21 03:04:24;;;;;;;18.38;9.25;;;;;;;-146.27;91.27;82689.53;5029851;28;20026;-71
2023/10/21 03:06:49;;;;;;;25.25;9.15;;;;;;;-146.27;91.38;82711.63;5026642;28;20479;-71
2023/10/21 03:09:16;;;;;;;26.10;9.15;;;;;;;-146.27;91.31;82729.72;5021192;28;20033;-71
2023/10/21 03:11:42;;;;;;;13.75;8.23;;;;;;;-146.27;91.46;82741.78;5017269;28;20022;-71
2023/10/21 03:14:07;;;;;;;18.88;8.82;;;;;;;-146.27;91.69;82761.84;5026952;28;20588;-71
2023/10/21 03:16:32;;;;;;;22.95;9.07;;;;;;;-146.27;91.37;82721.69;5032119;28;20060;-70
2023/10/21 03:18:58;;;;;;;15.27;8.18;;;;;;;-146.27;91.32;82715.66;5018142;28;20108;-71
2023/10/21 03:21:23;;;;;;;14.75;7.05;;;;;;;-146.27;91.23;82701.59;5028837;28;20473;-71
2023/10/21 03:23:48;;;;;;;18.58;8.52;;;;;;;-146.27;91.18;82717.66;5028313;28;20033;-70
2023/10/21 03:26:14;;;;;;;19.02;8.20;;;;;;;-146.27;91.24;82715.66;5022058;28;20021;-71
2023/10/21 03:28:40;;;;;;;16.73;7.35;;;;;;;-146.27;91.31;82719.66;5016489;28;20037;-71
2023/10/21 03:31:06;;;;;;;16.20;6.75;;;;;;;-146.27;91.25;82695.56;5015595;28;20444;-72
2023/10/21 03:33:32;;;;;;;19.70;7.88;;;;;;;-146.27;91.23;82723.69;5013099;28;20109;-70
2023/10/21 03:36:03;;;;;;;22.80;8.25;;;;;;;-146.27;91.22;82733.72;5013380;28;20021;-70
2023/10/21 03:38:29;;;;;;;21.30;8.30;;;;;;;-146.27;91.16;82709.63;5025153;28;20060;-70
2023/10/21 03:41:04;;;;;;;21.08;8.85;;;;;;;-146.27;91.15;82769.91;5023535;28;20025;-71
2023/10/21 03:43:30;;;;;;;18.58;8.32;;;;;;;-146.27;90.98;82759.84;5022857;28;20044;-71
2023/10/21 03:45:56;;;;;;;20.85;8.98;;;;;;;-146.27;91.15;82733.72;5018264;28;20102;-71
2023/10/21 03:48:22;;;;;;;19.25;7.70;;;;;;;-146.27;91.32;82743.78;5022576;28;20474;-71
2023/10/21 03:50:48;;;;;;;18.10;7.80;;;;;;;-146.27;91.33;82771.91;5017236;28;20104;-71
2023/10/21 03:53:14;;;;;;;19.30;8.20;;;;;;;-146.27;91.38;82785.97;5015990;28;20108;-71
2023/10/21 03:55:43;;;;;;;18.98;8.55;;;;;;;-146.27;91.24;82761.84;5012998;28;20574;-71
2023/10/21 03:58:10;;;;;;;18.35;8.50;;;;;;;-146.27;91.27;82785.97;5027462;28;20596;-75
2023/10/21 04:00:38;;;;;;;18.75;7.97;;;;;;;-146.27;91.15;82759.84;5019371;28;20041;-75
2023/10/21 04:03:04;;;;;;;18.98;8.38;;;;;;;-146.27;91.18;82773.91;5031795;28;20114;-74
2023/10/21 04:05:31;;;;;;;17.77;7.28;;;;;;;-146.27;91.07;82785.97;5029823;28;20025;-75
2023/10/21 04:07:56;;;;;;;18.17;8.45;;;;;;;-146.27;91.04;82757.84;5040725;28;20033;-74
2023/10/21 04:10:22;;;;;;;24.15;8.43;;;;;;;-146.27;91.05;82705.59;5034386;28;20032;-74
2023/10/21 04:12:47;;;;;;;20.42;8.10;;;;;;;-146.27;91.13;82796.00;5029764;28;20105;-74
2023/10/21 04:15:13;;;;;;;17.48;8.38;;;;;;;-146.27;91.21;82798.03;5012648;28;20052;-75
2023/10/21 04:17:45;;;;;;;26.10;8.65;;;;;;;-146.27;91.15;82757.84;5012819;28;20379;-75
2023/10/21 04:20:10;;;;;;;19.80;8.75;;;;;;;-146.27;91.24;82824.13;5012507;28;20064;-73
2023/10/21 04:22:36;;;;;;;22.80;8.25;;;;;;;-146.27;91.23;82798.03;5016180;28;20065;-75
2023/10/21 04:25:01;;;;;;;17.42;7.90;;;;;;;-146.27;91.08;82789.97;5035126;28;20687;-74
2023/10/21 04:27:27;;;;;;;21.42;7.68;;;;;;;-146.27;91.41;82822.13;5026019;28;20033;-74
2023/10/21 04:29:52;;;;;;;25.52;8.98;;;;;;;-146.27;91.25;82830.16;5024419;28;20034;-75
2023/10/21 04:32:17;;;;;;;20.27;7.78;;;;;;;-146.27;91.19;82858.28;5017904;28;20054;-74
2023/10/21 04:34:43;;;;;;;16.20;7.60;;;;;;;-146.27;91.30;82824.13;5019592;28;20072;-74
2023/10/21 04:37:08;;;;;;;20.98;7.90;;;;;;;-146.27;91.20;82814.09;5029304;28;20018;-75
2023/10/21 04:39:33;;;;;;;15.25;7.18;;;;;;;-146.27;91.16;82808.06;5021546;28;20037;-75
2023/10/21 04:41:59;;;;;;;23.05;8.85;;;;;;;-146.27;91.37;82850.25;5024815;28;20496;-74
2023/10/21 04:44:24;;;;;;;23.98;7.63;;;;;;;-146.27;91.66;82812.09;5020918;28;20761;-74
2023/10/21 04:46:50;;;;;;;15.05;6.82;;;;;;;-146.27;92.04;82838.19;5017748;28;20087;-74
2023/10/21 04:49:15;;;;;;;11.30;6.85;;;;;;;-146.27;92.15;82812.09;5027401;28;20436;-74
2023/10/21 04:51:40;;;;;;;19.77;8.25;;;;;;;-146.27;92.12;82834.19;5017426;28;20639;-74
2023/10/21 04:54:09;;;;;;;20.17;9.52;;;;;;;-146.27;92.28;82794.00;5015390;28;20496;-74
2023/10/21 04:56:34;;;;;;;18.98;8.05;;;;;;;-146.27;92.90;82794.00;5024523;28;20025;-73
2023/10/21 04:59:00;;;;;;;22.42;7.70;;;;;;;-146.27;92.92;82767.88;5020619;28;20024;-76
2023/10/21 05:01:25;;;;;;;33.33;9.13;;;;;;;-146.27;92.84;82800.03;5015585;28;20044;-74
2023/10/21 05:03:50;;;;;;;15.30;7.22;;;;;;;-146.27;92.45;82751.81;5011637;28;20056;-75
2023/10/21 05:06:16;;;;;;;20.88;7.28;;;;;;;-146.27;92.09;82705.59;5012279;28;20070;-75
2023/10/21 05:08:41;;;;;;;21.52;7.90;;;;;;;-146.27;92.25;82755.84;5025983;28;20025;-74
2023/10/21 05:11:07;;;;;;;22.98;7.60;;;;;;;-146.27;92.01;82713.66;5020854;28;20393;-75
2023/10/21 05:13:33;;;;;;;19.90;6.80;;;;;;;-146.27;92.27;82763.88;5021871;28;20101;-75
2023/10/21 05:15:58;;;;;;;17.75;6.28;;;;;;;-146.27;92.26;82703.59;5021803;28;20379;-74
2023/10/21 05:18:23;;;;;;;19.70;6.75;;;;;;;-146.27;92.07;82729.72;5028120;28;20060;-75
2023/10/21 05:20:49;;;;;;;19.38;7.68;;;;;;;-146.27;91.64;82677.47;5019455;28;20033;-75
2023/10/21 05:23:14;;;;;;;14.32;6.50;;;;;;;-146.27;91.47;82705.59;5023646;28;20029;-74
2023/10/21 05:25:39;;;;;;;18.85;7.00;;;;;;;-146.27;91.77;82693.56;5019120;28;20029;-75
2023/10/21 05:28:05;;;;;;;20.08;6.60;;;;;;;-146.27;91.45;82709.63;5021792;28;20477;-75
2023/10/21 05:30:31;;;;;;;12.77;7.05;;;;;;;-146.27;91.40;82637.31;5025601;28;20087;-75
2023/10/21 05:32:56;;;;;;;13.05;6.45;;;;;;;-146.27;90.68;82687.53;5021632;28;20030;-75
2023/10/21 05:35:21;;;;;;;14.45;5.97;;;;;;;-146.27;90.20;82657.41;5017364;28;20044;-75
2023/10/21 05:37:47;;;;;;;10.60;5.40;;;;;;;-146.27;90.13;82633.28;5016178;28;20031;-75
2023/10/21 05:40:13;;;;;;;10.95;6.68;;;;;;;-146.27;89.93;82645.34;5022691;28;20025;-75
2023/10/21 05:42:38;;;;;;;18.17;5.70;;;;;;;-146.27;89.83;82637.31;5011261;28;20075;-75
2023/10/21 05:45:04;;;;;;;11.73;6.50;;;;;;;-146.27;89.75;82625.25;5020362;28;20715;-75
2023/10/21 05:47:29;;;;;;;11.85;5.60;;;;;;;-146.27;89.76;82645.34;5025806;28;20033;-75
2023/10/21 05:49:55;;;;;;;8.38;5.07;;;;;;;-146.27;89.61;82651.38;5018252;28;20029;-74
2023/10/21 05:52:20;;;;;;;14.27;5.95;;;;;;;-146.27;89.53;82659.41;5025230;28;20386;-75
2023/10/21 05:54:46;;;;;;;13.80;5.50;;;;;;;-146.27;89.64;82665.44;5016583;28;20032;-75
2023/10/21 05:57:11;;;;;;;15.10;5.45;;;;;;;-146.27;89.84;82669.44;5020298;28;20109;-75
2023/10/21 05:59:37;;;;;;;13.93;6.45;;;;;;;-146.27;89.76;82651.38;5018077;28;20029;-75
2023/10/21 06:02:03;;;;;;;14.55;5.53;;;;;;;-146.27;89.81;82659.41;5023823;28;20113;-75
2023/10/21 06:04:28;;;;;;;17.23;6.15;;;;;;;-146.27;89.31;82665.44;5011840;28;20528;-75
2023/10/21 06:06:56;;;;;;;13.52;5.85;;;;;;;-146.27;89.60;82597.13;5015707;28;20312;-75
2023/10/21 06:09:23;;;;;;;18.60;6.28;;;;;;;-146.27;89.56;82653.38;5011959;28;20364;-75
2023/10/21 06:11:50;;;;;;;13.88;7.18;;;;;;;-146.27;89.45;82603.16;5023531;28;20025;-74
2023/10/21 06:14:17;;;;;;;14.15;6.10;;;;;;;-146.27;89.54;82629.28;5018360;28;20035;-75
2023/10/21 06:16:43;;;;;;;10.32;5.90;;;;;;;-146.27;89.62;82641.31;5029016;28;20044;-74
2023/10/21 06:19:09;;;;;;;10.18;6.72;;;;;;;-146.27;89.55;82581.06;5017042;28;20029;-70
2023/10/21 06:21:34;;;;;;;13.48;6.07;;;;;;;-146.27;89.48;82627.25;5022307;28;20386;-72
2023/10/21 06:24:00;;;;;;;10.15;5.80;;;;;;;-146.27;89.62;82617.22;5010216;28;20050;-71
2023/10/21 06:26:25;;;;;;;15.75;6.00;;;;;;;-146.27;89.50;82637.31;5019795;28;20441;-71
2023/10/21 06:28:51;;;;;;;10.35;6.22;;;;;;;-146.27;89.50;82603.16;5019817;28;20071;-72
2023/10/21 06:31:16;;;;;;;12.02;5.75;;;;;;;-146.27;89.57;82589.09;5018441;28;20087;-70
2023/10/21 06:33:41;;;;;;;15.15;5.45;;;;;;;-146.27;89.51;82589.09;5015846;28;20028;-73
2023/10/21 06:36:07;;;;;;;13.57;5.28;;;;;;;-146.27;89.29;82615.22;5027019;28;20022;-72
2023/10/21 06:38:33;;;;;;;12.43;5.97;;;;;;;-146.27;89.36;82629.28;5024615;28;20033;-72
2023/10/21 06:40:58;;;;;;;17.23;5.95;;;;;;;-146.27;89.61;82597.13;5027966;28;20052;-72
2023/10/21 06:43:24;;;;;;;10.48;5.95;;;;;;;-146.27;89.51;82615.22;5017989;28;20036;-71
2023/10/21 06:45:49;;;;;;;18.00;5.53;;;;;;;-146.27;89.45;82589.09;5025080;28;20451;-72
2023/10/21 06:48:14;;;;;;;14.48;5.90;;;;;;;-146.27;89.51;82619.22;5030279;28;20116;-72
2023/10/21 06:50:40;;;;;;;12.00;5.38;;;;;;;-146.27;89.37;82593.09;5022228;28;20113;-72
2023/10/21 06:53:06;;;;;;;11.35;5.35;;;;;;;-146.27;89.43;82605.16;5035662;28;20049;-72
2023/10/21 06:55:42;;;;;;;16.10;4.82;;;;;;;-146.27;89.28;82585.06;5024331;28;20030;-72
2023/10/21 06:58:07;;;;;;;11.98;5.43;;;;;;;-146.27;89.30;82627.25;5023388;28;20068;-71
2023/10/21 07:00:33;;;;;;;12.45;5.68;;;;;;;-146.27;89.32;82585.06;5022898;28;20553;-71
2023/10/21 07:02:58;;;;;;;16.35;5.32;;;;;;;-146.27;89.47;82589.09;5015845;28;20097;-71
2023/10/21 07:05:23;;;;;;;12.77;5.50;;;;;;;-146.27;89.69;82619.22;5027848;28;20108;-71
2023/10/21 07:07:49;;;;;;;11.50;4.75;;;;;;;-146.27;89.64;82617.22;5037506;28;20048;-71
2023/10/21 07:10:14;;;;;;;11.20;4.90;;;;;;;-146.27;89.70;82603.16;5016705;28;20083;-70
2023/10/21 07:12:40;;;;;;;10.80;5.22;;;;;;;-146.27;90.03;82603.16;5028761;28;20033;-69
2023/10/21 07:15:07;;;;;;;11.70;5.70;;;;;;;-146.27;89.75;82540.88;5028751;28;20061;-72
2023/10/21 07:17:32;;;;;;;14.02;5.25;;;;;;;-146.27;90.76;82633.28;5021279;28;20033;-73
2023/10/21 07:19:58;;;;;;;9.90;5.72;;;;;;;-146.27;89.83;82597.13;5026354;28;20025;-71
2023/10/21 07:22:23;;;;;;;11.52;5.30;;;;;;;-146.27;89.50;82526.81;5031239;28;20030;-72
2023/10/21 07:24:53;;;;;;;15.07;6.13;;;;;;;-146.27;89.69;82562.97;5032612;28;20048;-70
2023/10/21 07:27:19;;;;;;;19.10;6.00;;;;;;;-146.27;90.02;82552.94;5023153;28;20533;-69
2023/10/21 07:29:45;;;;;;;13.80;5.43;;;;;;;-146.27;89.98;82605.16;5016650;28;20117;-72
2023/10/21 07:32:10;;;;;;;11.80;5.10;;;;;;;-146.27;89.75;82560.97;5021553;28;20026;-69
2023/10/21 07:34:36;;;;;;;6.85;4.85;;;;;;;-146.27;90.10;82599.13;5021273;28;20109;-72
2023/10/21 07:37:02;;;;;;;9.75;5.40;;;;;;;-146.27;89.75;82577.03;5025138;28;20474;-71
2023/10/21 07:39:27;;;;;;;12.60;5.03;;;;;;;-146.27;89.36;82567.00;5025287;28;20087;-71
2023/10/21 07:41:54;;;;;;;11.20;4.45;;;;;;;-146.27;89.42;82569.00;5025874;28;20072;-70
2023/10/21 07:44:19;;;;;;;9.93;3.90;;;;;;;-146.27;89.99;82645.34;5017455;28;20045;-70
2023/10/21 07:46:44;;;;;;;8.88;3.40;;;;;;;-146.27;88.84;82599.13;5023486;28;20068;-73
2023/10/21 07:49:10;;;;;;;14.23;4.50;;;;;;;-146.27;88.74;82567.00;5031720;28;20502;-69
2023/10/21 07:51:36;;;;;;;7.25;4.25;;;;;;;-146.27;88.23;82508.72;5028065;28;20029;-73
2023/10/21 07:54:01;;;;;;;9.35;3.92;;;;;;;-146.27;88.04;82520.78;5023199;28;20025;-73
2023/10/21 07:56:27;;;;;;;6.95;3.53;;;;;;;-146.27;88.72;82542.88;5022926;28;20067;-72
2023/10/21 07:58:52;;;;;;;8.40;3.85;;;;;;;-146.27;88.48;82552.94;5017017;28;20088;-72
2023/10/21 08:01:19;;;;;;;8.00;3.55;;;;;;;-146.27;89.75;82673.47;5021337;28;20457;-72
2023/10/21 08:03:44;;;;;;;5.40;3.10;;;;;;;-146.27;90.39;82645.34;5025136;28;20056;-72
2023/10/21 08:06:10;;;;;;;5.55;3.17;;;;;;;-146.27;90.58;82681.50;5025493;28;20064;-70
2023/10/21 08:08:35;;;;;;;8.68;3.72;;;;;;;-146.27;90.40;82625.25;5013833;28;20084;-70
2023/10/21 08:11:02;;;;;;;7.03;3.63;;;;;;;-146.27;91.16;82661.41;5016817;28;20041;-72
2023/10/21 08:13:29;;;;;;;7.40;3.78;;;;;;;-146.27;90.65;82621.22;5024118;28;20033;-71
2023/10/21 08:15:54;;;;;;;9.25;3.72;;;;;;;-146.27;90.24;82605.16;5024352;28;20046;-71
2023/10/21 08:18:20;;;;;;;5.15;3.05;;;;;;;-146.27;89.86;82691.53;5014460;28;20036;-71
2023/10/21 08:20:45;;;;;;;5.57;2.90;;;;;;;-146.27;89.97;82675.47;5019382;28;20087;-71
2023/10/21 08:23:10;;;;;;;4.45;3.00;;;;;;;-146.27;90.34;82677.47;5022914;28;20056;-71
2023/10/21 08:25:36;;;;;;;3.97;2.22;;;;;;;-146.27;90.82;82741.78;5025290;28;20538;-70
2023/10/21 08:28:03;;;;;;;5.60;2.30;;;;;;;-146.27;90.79;82751.81;5019131;28;20040;-71
2023/10/21 08:30:28;;;;;;;2.22;1.92;;;;;;;-146.27;90.34;82729.72;5023288;28;20078;-70
2023/10/21 08:32:54;;;;;;;5.55;2.10;;;;;;;-146.27;90.12;82773.91;5017088;28;20112;-71
2023/10/21 08:35:19;;;;;;;2.95;1.40;;;;;;;-146.27;90.05;82767.88;5018814;28;20060;-71
2023/10/21 08:37:44;;;;;;;5.13;1.42;;;;;;;-146.27;89.32;82729.72;5031934;28;20024;-72
2023/10/21 08:40:10;;;;;;;3.20;1.00;;;;;;;-146.27;88.22;82713.66;5023821;28;20025;-68
2023/10/21 08:42:36;;;;;;;1.33;0.82;;;;;;;-146.27;87.93;82709.63;5030046;28;20044;-68
2023/10/21 08:45:06;;;;;;;3.25;0.80;;;;;;;-146.27;86.86;82693.56;5020657;28;20071;-67
2023/10/21 08:47:35;;;;;;;5.30;0.80;;;;;;;-146.27;87.01;82725.69;5022082;28;20036;-70
2023/10/21 08:50:01;;;;;;;4.43;0.90;;;;;;;-146.27;85.67;82729.72;5032547;28;20037;-69
2023/10/21 08:52:28;;;;;;;2.92;0.90;;;;;;;-146.27;85.11;82661.41;5046268;28;20047;-70
2023/10/21 08:54:54;;;;;;;3.05;0.90;;;;;;;-146.27;85.18;82721.69;5037257;28;20025;-71
2023/10/21 08:57:19;;;;;;;2.95;0.90;;;;;;;-146.27;84.37;82663.41;5025378;28;20531;-70
2023/10/21 08:59:45;;;;;;;4.28;1.10;;;;;;;-146.27;83.69;82711.63;5012122;28;20389;-70
2023/10/21 09:02:10;;;;;;;2.55;1.00;;;;;;;-146.27;82.97;82673.47;5020961;28;20042;-70
2023/10/21 09:04:36;;;;;;;3.63;0.90;;;;;;;-146.27;82.66;82691.53;5020425;28;20071;-71
2023/10/21 09:07:02;;;;;;;2.88;1.67;;;;;;;-146.27;82.51;82677.47;5027712;28;20071;-71
2023/10/21 09:09:29;;;;;;;3.38;1.00;;;;;;;-146.27;82.29;82671.47;5032509;28;20521;-70
2023/10/21 09:12:11;;;;;;;2.22;0.70;;;;;;;-146.27;82.88;82729.72;5033782;28;20029;-71
2023/10/21 09:14:52;;;;;;;1.42;0.80;;;;;;;-146.27;82.49;82753.81;5018910;28;20029;-70
2023/10/21 09:17:45;;;;;;;1.65;1.15;;;;;;;-146.27;81.68;82599.13;5066467;28;20409;-71
2023/10/21 09:20:20;;;;;;;2.33;0.93;;;;;;;-146.27;81.11;82697.56;5065112;28;20068;-71
2023/10/21 09:22:52;;;;;;;0.75;0.75;;;;;;;-146.27;81.02;82655.38;5051820;28;20020;-68
2023/10/21 09:25:21;;;;;;;3.13;0.90;;;;;;;-146.27;80.29;82601.16;5050587;28;20025;-71
2023/10/21 09:27:52;;;;;;;3.75;1.23;;;;;;;-146.27;79.98;82677.47;5032998;28;20103;-71
2023/10/21 09:30:19;;;;;;;1.92;0.90;;;;;;;-146.27;79.82;82685.50;5044299;28;20028;-72
2023/10/21 09:32:49;;;;;;;1.38;0.80;;;;;;;-146.27;79.30;82609.19;5057653;28;20082;-71
2023/10/21 09:35:30;;;;;;;1.90;0.82;;;;;;;-146.27;79.25;82657.41;5048579;28;20818;-71
2023/10/21 09:37:56;;;;;;;2.90;1.00;;;;;;;-146.27;78.96;82593.09;5033459;28;20377;-72
2023/10/21 09:40:24;;;;;;;4.85;2.38;;;;;;;-146.27;78.54;82641.31;5055826;28;20029;-72
2023/10/21 09:42:52;;;;;;;7.05;1.00;;;;;;;-146.27;78.60;82701.59;5057489;28;20060;-72
2023/10/21 09:45:18;;;;;;;4.13;1.00;;;;;;;-146.27;77.68;82621.22;5058697;28;20044;-72
2023/10/21 09:47:45;;;;;;;2.88;0.80;;;;;;;-146.27;77.53;82613.19;5044875;28;20119;-71
2023/10/21 09:50:13;;;;;;;5.05;0.70;;;;;;;-146.27;76.55;82556.94;5047833;28;20033;-72
2023/10/21 09:53:00;;;;;;;3.70;1.13;;;;;;;-146.27;75.74;82412.31;5053685;28;20053;-71
2023/10/21 09:55:29;;;;;;;2.22;1.00;;;;;;;-146.27;75.37;82472.56;5048074;28;20079;-70
2023/10/21 09:57:57;;;;;;;5.43;0.98;;;;;;;-146.27;75.30;82420.34;5055133;28;20477;-68
2023/10/21 10:00:24;;;;;;;3.17;0.80;;;;;;;-146.27;73.52;82400.25;5029168;28;20022;-72
2023/10/21 10:02:53;;;;;;;3.83;1.00;;;;;;;-146.27;72.88;82434.41;5068814;28;20025;-71
2023/10/21 10:05:18;;;;;;;3.88;0.90;;;;;;;-146.27;73.31;82406.28;5043235;28;20100;-71
2023/10/21 10:07:47;;;;;;;3.75;0.70;;;;;;;-146.27;73.01;82406.28;5045451;28;20024;-72
2023/10/21 10:10:17;;;;;;;5.38;0.70;;;;;;;-146.27;72.00;82420.34;5062202;28;20440;-71
2023/10/21 10:12:45;;;;;;;4.10;0.93;;;;;;;-146.27;71.81;82239.56;5047042;28;20029;-70
2023/10/21 10:15:29;;;;;;;4.30;0.70;;;;;;;-146.27;70.91;82291.78;5051425;28;20021;-71
2023/10/21 10:17:55;;;;;;;6.35;0.80;;;;;;;-146.27;70.61;82340.00;5046992;28;20021;-71
2023/10/21 10:20:26;;;;;;;2.05;0.65;;;;;;;-146.27;70.45;82235.53;5038707;28;20032;-71
2023/10/21 10:23:02;;;;;;;4.43;1.00;;;;;;;-146.27;69.87;82223.47;5047799;28;20058;-70
2023/10/21 10:25:32;;;;;;;2.95;0.70;;;;;;;-146.27;69.00;82175.28;5031108;28;20025;-72
2023/10/21 10:28:07;;;;;;;2.67;0.90;;;;;;;-146.27;69.09;82227.50;5040274;28;20064;-71
2023/10/21 10:30:33;;;;;;;1.30;0.60;;;;;;;-146.27;67.14;82177.28;5029874;28;20392;-69
2023/10/21 10:33:07;;;;;;;4.03;0.70;;;;;;;-146.27;67.75;82283.75;5024516;28;20032;-70
2023/10/21 10:35:40;;;;;;;5.15;0.80;;;;;;;-146.27;67.49;82163.22;5028183;28;20047;-70
2023/10/21 10:38:24;;;;;;;1.90;0.65;;;;;;;-146.27;65.66;82074.84;5036834;28;20025;-71
2023/10/21 10:41:09;;;;;;;3.35;0.93;;;;;;;-146.27;64.43;81972.41;5031178;28;20520;-72
2023/10/21 10:43:38;;;;;;;1.60;0.60;;;;;;;-146.27;62.76;81948.31;5036241;28;20032;-70
2023/10/21 10:46:05;;;;;;;1.33;0.60;;;;;;;-146.27;62.26;81934.25;5035056;28;20036;-71
2023/10/21 10:48:31;;;;;;;2.53;0.60;;;;;;;-146.27;61.22;82080.88;5030711;28;20112;-70
2023/10/21 10:51:01;;;;;;;4.47;0.85;;;;;;;-146.27;62.74;82062.78;5046023;28;20112;-69
2023/10/21 10:53:27;;;;;;;7.15;0.73;;;;;;;-146.27;62.43;81956.34;5033922;28;20477;-70
2023/10/21 10:55:56;;;;;;;4.38;0.57;;;;;;;-146.27;62.73;82006.53;5035873;28;20036;-70
2023/10/21 10:58:26;;;;;;;2.25;0.60;;;;;;;-146.27;60.73;81821.75;5021083;28;20029;-71
2023/10/21 11:00:52;;;;;;;2.45;0.73;;;;;;;-146.27;59.85;81904.13;5030134;28;20056;-68
2023/10/21 11:03:33;;;;;;;4.63;0.80;;;;;;;-146.27;59.56;81898.09;5026190;28;20056;-72
2023/10/21 11:05:59;;;;;;;7.30;1.00;;;;;;;-146.27;59.51;81990.47;5026397;28;20035;-71
2023/10/21 11:08:28;;;;;;;5.25;0.82;;;;;;;-146.27;60.46;82000.53;5033360;28;20102;-71
2023/10/21 11:11:03;;;;;;;5.05;1.05;;;;;;;-146.27;60.60;82070.81;5033322;28;20184;-71